sensor_id;sensor_type;location;lat;lon;timestamp;temperature;humidity
3256;DHT22;1640;48.504;9.224;2023-06-04T00:01:32;15.00;49.90
3256;DHT22;1640;48.504;9.224;2023-06-04T00:04:01;15.00;48.00
3256;DHT22;1640;48.504;9.224;2023-06-04T00:06:28;14.90;47.00
3256;DHT22;1640;48.504;9.224;2023-06-04T00:08:56;14.90;46.00
3256;DHT22;1640;48.504;9.224;2023-06-04T00:11:24;14.80;44.90
3256;DHT22;1640;48.504;9.224;2023-06-04T00:13:52;14.80;43.70
3256;DHT22;1640;48.504;9.224;2023-06-04T00:16:20;14.80;44.70
3256;DHT22;1640;48.504;9.224;2023-06-04T00:18:48;14.70;43.00
3256;DHT22;1640;48.504;9.224;2023-06-04T00:21:17;14.70;43.70
3256;DHT22;1640;48.504;9.224;2023-06-04T00:23:44;14.70;45.20
3256;DHT22;1640;48.504;9.224;2023-06-04T00:26:12;14.60;46.00
3256;DHT22;1640;48.504;9.224;2023-06-04T00:28:40;14.70;44.20
3256;DHT22;1640;48.504;9.224;2023-06-04T00:31:07;14.60;45.90
3256;DHT22;1640;48.504;9.224;2023-06-04T00:33:36;14.60;46.40
3256;DHT22;1640;48.504;9.224;2023-06-04T00:36:04;14.60;43.80
3256;DHT22;1640;48.504;9.224;2023-06-04T00:38:33;14.60;42.50
3256;DHT22;1640;48.504;9.224;2023-06-04T00:41:01;14.60;43.70
3256;DHT22;1640;48.504;9.224;2023-06-04T00:43:28;14.60;42.50
3256;DHT22;1640;48.504;9.224;2023-06-04T00:45:57;14.50;41.50
3256;DHT22;1640;48.504;9.224;2023-06-04T00:48:26;14.40;38.80
3256;DHT22;1640;48.504;9.224;2023-06-04T00:50:54;14.40;38.50
3256;DHT22;1640;48.504;9.224;2023-06-04T00:53:24;14.30;35.00
3256;DHT22;1640;48.504;9.224;2023-06-04T00:55:53;14.30;35.20
3256;DHT22;1640;48.504;9.224;2023-06-04T00:58:21;14.30;33.90
3256;DHT22;1640;48.504;9.224;2023-06-04T01:00:52;14.20;32.60
3256;DHT22;1640;48.504;9.224;2023-06-04T01:03:23;14.20;31.60
3256;DHT22;1640;48.504;9.224;2023-06-04T01:06:00;14.30;32.00
3256;DHT22;1640;48.504;9.224;2023-06-04T01:08:31;14.30;32.40
3256;DHT22;1640;48.504;9.224;2023-06-04T01:11:00;14.20;32.30
3256;DHT22;1640;48.504;9.224;2023-06-04T01:13:27;14.10;29.70
3256;DHT22;1640;48.504;9.224;2023-06-04T01:15:55;14.00;28.10
3256;DHT22;1640;48.504;9.224;2023-06-04T01:18:26;14.00;29.40
3256;DHT22;1640;48.504;9.224;2023-06-04T01:20:58;14.00;29.60
3256;DHT22;1640;48.504;9.224;2023-06-04T01:23:32;13.90;29.10
3256;DHT22;1640;48.504;9.224;2023-06-04T01:26:03;13.90;29.80
3256;DHT22;1640;48.504;9.224;2023-06-04T01:28:33;13.80;29.00
3256;DHT22;1640;48.504;9.224;2023-06-04T01:31:03;13.70;28.30
3256;DHT22;1640;48.504;9.224;2023-06-04T01:33:34;13.70;26.20
3256;DHT22;1640;48.504;9.224;2023-06-04T01:36:01;13.70;26.70
3256;DHT22;1640;48.504;9.224;2023-06-04T01:38:29;13.70;26.70
3256;DHT22;1640;48.504;9.224;2023-06-04T01:40:57;13.60;25.80
3256;DHT22;1640;48.504;9.224;2023-06-04T01:43:29;13.60;25.60
3256;DHT22;1640;48.504;9.224;2023-06-04T01:46:01;13.60;26.10
3256;DHT22;1640;48.504;9.224;2023-06-04T01:48:29;13.60;25.40
3256;DHT22;1640;48.504;9.224;2023-06-04T01:50:58;13.50;25.30
3256;DHT22;1640;48.504;9.224;2023-06-04T01:53:26;13.50;27.10
3256;DHT22;1640;48.504;9.224;2023-06-04T01:55:54;13.50;27.10
3256;DHT22;1640;48.504;9.224;2023-06-04T01:58:23;13.40;26.00
3256;DHT22;1640;48.504;9.224;2023-06-04T02:00:54;13.40;25.80
3256;DHT22;1640;48.504;9.224;2023-06-04T02:03:26;13.40;27.10
3256;DHT22;1640;48.504;9.224;2023-06-04T02:05:54;13.40;26.30
3256;DHT22;1640;48.504;9.224;2023-06-04T02:08:21;13.30;25.80
3256;DHT22;1640;48.504;9.224;2023-06-04T02:10:52;13.30;25.20
3256;DHT22;1640;48.504;9.224;2023-06-04T02:13:20;13.20;24.10
3256;DHT22;1640;48.504;9.224;2023-06-04T02:15:47;13.20;23.90
3256;DHT22;1640;48.504;9.224;2023-06-04T02:18:18;13.10;24.00
3256;DHT22;1640;48.504;9.224;2023-06-04T02:20:47;13.10;23.80
3256;DHT22;1640;48.504;9.224;2023-06-04T02:23:16;13.10;22.10
3256;DHT22;1640;48.504;9.224;2023-06-04T02:25:45;13.10;22.20
3256;DHT22;1640;48.504;9.224;2023-06-04T02:28:13;13.10;22.00
3256;DHT22;1640;48.504;9.224;2023-06-04T02:30:41;13.00;21.30
3256;DHT22;1640;48.504;9.224;2023-06-04T02:33:08;12.90;19.90
3256;DHT22;1640;48.504;9.224;2023-06-04T02:35:38;12.90;17.90
3256;DHT22;1640;48.504;9.224;2023-06-04T02:38:07;12.90;17.50
3256;DHT22;1640;48.504;9.224;2023-06-04T02:40:34;12.80;15.30
3256;DHT22;1640;48.504;9.224;2023-06-04T02:43:02;12.80;14.00
3256;DHT22;1640;48.504;9.224;2023-06-04T02:45:30;12.80;13.50
3256;DHT22;1640;48.504;9.224;2023-06-04T02:47:57;12.80;12.10
3256;DHT22;1640;48.504;9.224;2023-06-04T02:50:25;12.80;11.40
3256;DHT22;1640;48.504;9.224;2023-06-04T02:52:54;12.80;10.90
3256;DHT22;1640;48.504;9.224;2023-06-04T02:55:22;12.80;10.30
3256;DHT22;1640;48.504;9.224;2023-06-04T02:57:50;12.70;9.20
3256;DHT22;1640;48.504;9.224;2023-06-04T03:00:18;12.70;7.70
3256;DHT22;1640;48.504;9.224;2023-06-04T03:02:47;12.70;7.80
3256;DHT22;1640;48.504;9.224;2023-06-04T03:05:15;12.70;6.60
3256;DHT22;1640;48.504;9.224;2023-06-04T03:07:45;12.60;7.50
3256;DHT22;1640;48.504;9.224;2023-06-04T03:10:15;12.60;6.70
3256;DHT22;1640;48.504;9.224;2023-06-04T03:12:43;12.50;6.70
3256;DHT22;1640;48.504;9.224;2023-06-04T03:15:11;12.50;7.50
3256;DHT22;1640;48.504;9.224;2023-06-04T03:17:39;12.40;4.90
3256;DHT22;1640;48.504;9.224;2023-06-04T03:20:08;12.40;2.50
3256;DHT22;1640;48.504;9.224;2023-06-04T03:22:36;12.40;1.50
3256;DHT22;1640;48.504;9.224;2023-06-04T03:25:04;12.40;0.50
3256;DHT22;1640;48.504;9.224;2023-06-04T03:27:33;12.40;0.80
3256;DHT22;1640;48.504;9.224;2023-06-04T03:30:03;12.40;0.50
3256;DHT22;1640;48.504;9.224;2023-06-04T03:32:35;12.40;99.90
3256;DHT22;1640;48.504;9.224;2023-06-04T03:35:03;12.40;99.90
3256;DHT22;1640;48.504;9.224;2023-06-04T03:37:30;12.40;99.90
3256;DHT22;1640;48.504;9.224;2023-06-04T03:39:58;12.30;99.90
3256;DHT22;1640;48.504;9.224;2023-06-04T03:42:26;12.30;99.90
3256;DHT22;1640;48.504;9.224;2023-06-04T03:44:55;12.30;99.90
3256;DHT22;1640;48.504;9.224;2023-06-04T03:47:24;12.30;99.90
3256;DHT22;1640;48.504;9.224;2023-06-04T03:49:51;12.30;99.90
3256;DHT22;1640;48.504;9.224;2023-06-04T03:52:19;12.30;99.90
3256;DHT22;1640;48.504;9.224;2023-06-04T03:54:47;12.30;99.90
3256;DHT22;1640;48.504;9.224;2023-06-04T03:57:14;12.30;99.90
3256;DHT22;1640;48.504;9.224;2023-06-04T03:59:42;12.40;99.90
3256;DHT22;1640;48.504;9.224;2023-06-04T04:02:11;12.40;99.90
3256;DHT22;1640;48.504;9.224;2023-06-04T04:04:39;12.40;99.90
3256;DHT22;1640;48.504;9.224;2023-06-04T04:07:06;12.40;99.90
3256;DHT22;1640;48.504;9.224;2023-06-04T04:09:34;12.40;99.90
3256;DHT22;1640;48.504;9.224;2023-06-04T04:12:02;12.50;99.90
3256;DHT22;1640;48.504;9.224;2023-06-04T04:14:30;12.50;99.90
3256;DHT22;1640;48.504;9.224;2023-06-04T04:16:58;12.50;99.90
3256;DHT22;1640;48.504;9.224;2023-06-04T04:19:27;12.50;99.90
3256;DHT22;1640;48.504;9.224;2023-06-04T04:21:55;12.60;99.90
3256;DHT22;1640;48.504;9.224;2023-06-04T04:24:23;12.70;99.90
3256;DHT22;1640;48.504;9.224;2023-06-04T04:26:52;12.70;0.90
3256;DHT22;1640;48.504;9.224;2023-06-04T04:29:20;12.80;0.50
3256;DHT22;1640;48.504;9.224;2023-06-04T04:31:51;12.80;99.90
3256;DHT22;1640;48.504;9.224;2023-06-04T04:34:19;12.90;2.80
3256;DHT22;1640;48.504;9.224;2023-06-04T04:36:49;13.00;2.50
3256;DHT22;1640;48.504;9.224;2023-06-04T04:39:18;13.00;2.50
3256;DHT22;1640;48.504;9.224;2023-06-04T04:41:46;13.10;1.00
3256;DHT22;1640;48.504;9.224;2023-06-04T04:44:14;13.10;3.00
3256;DHT22;1640;48.504;9.224;2023-06-04T04:46:42;13.20;7.10
3256;DHT22;1640;48.504;9.224;2023-06-04T04:49:09;13.30;11.10
3256;DHT22;1640;48.504;9.224;2023-06-04T04:51:37;13.40;12.70
3256;DHT22;1640;48.504;9.224;2023-06-04T04:54:06;13.50;13.30
3256;DHT22;1640;48.504;9.224;2023-06-04T04:56:34;13.70;17.40
3256;DHT22;1640;48.504;9.224;2023-06-04T04:59:02;13.70;18.80
3256;DHT22;1640;48.504;9.224;2023-06-04T05:01:30;13.70;21.30
3256;DHT22;1640;48.504;9.224;2023-06-04T05:03:57;13.80;21.50
3256;DHT22;1640;48.504;9.224;2023-06-04T05:06:25;13.90;25.50
3256;DHT22;1640;48.504;9.224;2023-06-04T05:08:53;14.00;35.00
3256;DHT22;1640;48.504;9.224;2023-06-04T05:11:22;14.00;39.50
3256;DHT22;1640;48.504;9.224;2023-06-04T05:13:49;14.00;39.20
3256;DHT22;1640;48.504;9.224;2023-06-04T05:16:17;14.10;42.20
3256;DHT22;1640;48.504;9.224;2023-06-04T05:18:46;14.10;43.80
3256;DHT22;1640;48.504;9.224;2023-06-04T05:21:14;14.20;46.00
3256;DHT22;1640;48.504;9.224;2023-06-04T05:23:42;14.40;50.90
3256;DHT22;1640;48.504;9.224;2023-06-04T05:26:14;14.50;50.50
3256;DHT22;1640;48.504;9.224;2023-06-04T05:28:44;14.60;55.90
3256;DHT22;1640;48.504;9.224;2023-06-04T05:31:11;14.60;57.10
3256;DHT22;1640;48.504;9.224;2023-06-04T05:33:39;14.80;57.80
3256;DHT22;1640;48.504;9.224;2023-06-04T05:36:07;14.80;58.90
3256;DHT22;1640;48.504;9.224;2023-06-04T05:38:34;14.80;56.30
3256;DHT22;1640;48.504;9.224;2023-06-04T05:41:02;15.00;58.60
3256;DHT22;1640;48.504;9.224;2023-06-04T05:43:30;15.20;59.90
3256;DHT22;1640;48.504;9.224;2023-06-04T05:45:59;15.30;64.30
3256;DHT22;1640;48.504;9.224;2023-06-04T05:48:26;15.40;65.20
3256;DHT22;1640;48.504;9.224;2023-06-04T05:50:54;15.60;69.30
3256;DHT22;1640;48.504;9.224;2023-06-04T05:53:22;15.60;70.50
3256;DHT22;1640;48.504;9.224;2023-06-04T05:55:49;15.70;71.10
3256;DHT22;1640;48.504;9.224;2023-06-04T05:58:17;15.60;72.60
3256;DHT22;1640;48.504;9.224;2023-06-04T06:00:45;15.60;72.10
3256;DHT22;1640;48.504;9.224;2023-06-04T06:03:14;15.50;72.50
3256;DHT22;1640;48.504;9.224;2023-06-04T06:05:44;15.70;71.90
3256;DHT22;1640;48.504;9.224;2023-06-04T06:08:11;15.60;71.20
3256;DHT22;1640;48.504;9.224;2023-06-04T06:10:39;15.60;71.30
3256;DHT22;1640;48.504;9.224;2023-06-04T06:13:07;15.40;70.30
3256;DHT22;1640;48.504;9.224;2023-06-04T06:15:34;15.50;69.60
3256;DHT22;1640;48.504;9.224;2023-06-04T06:18:02;15.50;70.60
3256;DHT22;1640;48.504;9.224;2023-06-04T06:20:31;15.70;69.90
3256;DHT22;1640;48.504;9.224;2023-06-04T06:23:05;15.80;71.30
3256;DHT22;1640;48.504;9.224;2023-06-04T06:25:33;15.80;70.50
3256;DHT22;1640;48.504;9.224;2023-06-04T06:28:01;15.80;70.00
3256;DHT22;1640;48.504;9.224;2023-06-04T06:30:28;15.80;68.90
3256;DHT22;1640;48.504;9.224;2023-06-04T06:32:56;16.00;68.90
3256;DHT22;1640;48.504;9.224;2023-06-04T06:35:24;16.10;68.50
3256;DHT22;1640;48.504;9.224;2023-06-04T06:37:53;16.30;69.50
3256;DHT22;1640;48.504;9.224;2023-06-04T06:40:21;16.40;68.50
3256;DHT22;1640;48.504;9.224;2023-06-04T06:42:49;16.40;68.00
3256;DHT22;1640;48.504;9.224;2023-06-04T06:45:17;16.50;68.50
3256;DHT22;1640;48.504;9.224;2023-06-04T06:47:45;16.60;67.60
3256;DHT22;1640;48.504;9.224;2023-06-04T06:50:13;16.70;67.50
3256;DHT22;1640;48.504;9.224;2023-06-04T06:52:41;16.60;68.20
3256;DHT22;1640;48.504;9.224;2023-06-04T06:55:10;16.70;68.90
3256;DHT22;1640;48.504;9.224;2023-06-04T06:57:38;16.80;67.90
3256;DHT22;1640;48.504;9.224;2023-06-04T07:00:06;16.80;69.20
3256;DHT22;1640;48.504;9.224;2023-06-04T07:02:35;16.90;70.20
3256;DHT22;1640;48.504;9.224;2023-06-04T07:05:03;16.80;69.90
3256;DHT22;1640;48.504;9.224;2023-06-04T07:07:30;16.80;70.30
3256;DHT22;1640;48.504;9.224;2023-06-04T07:09:58;16.90;69.50
3256;DHT22;1640;48.504;9.224;2023-06-04T07:12:28;16.90;70.80
3256;DHT22;1640;48.504;9.224;2023-06-04T07:14:56;16.80;70.60
3256;DHT22;1640;48.504;9.224;2023-06-04T07:17:23;16.90;70.50
3256;DHT22;1640;48.504;9.224;2023-06-04T07:19:51;17.10;71.90
3256;DHT22;1640;48.504;9.224;2023-06-04T07:22:19;17.20;72.50
3256;DHT22;1640;48.504;9.224;2023-06-04T07:24:47;17.20;72.10
3256;DHT22;1640;48.504;9.224;2023-06-04T07:27:15;17.40;71.90
3256;DHT22;1640;48.504;9.224;2023-06-04T07:29:44;17.50;72.80
3256;DHT22;1640;48.504;9.224;2023-06-04T07:32:16;17.50;72.80
3256;DHT22;1640;48.504;9.224;2023-06-04T07:34:44;17.50;72.80
3256;DHT22;1640;48.504;9.224;2023-06-04T07:37:12;17.50;72.80
3256;DHT22;1640;48.504;9.224;2023-06-04T07:39:41;17.70;73.10
3256;DHT22;1640;48.504;9.224;2023-06-04T07:42:10;18.00;73.10
3256;DHT22;1640;48.504;9.224;2023-06-04T07:44:37;18.10;72.60
3256;DHT22;1640;48.504;9.224;2023-06-04T07:47:07;18.20;72.60
3256;DHT22;1640;48.504;9.224;2023-06-04T07:49:34;18.30;72.60
3256;DHT22;1640;48.504;9.224;2023-06-04T07:52:02;18.60;71.90
3256;DHT22;1640;48.504;9.224;2023-06-04T07:54:30;18.60;71.80
3256;DHT22;1640;48.504;9.224;2023-06-04T07:56:57;18.70;71.80
3256;DHT22;1640;48.504;9.224;2023-06-04T07:59:25;18.70;72.20
3256;DHT22;1640;48.504;9.224;2023-06-04T08:01:53;18.80;71.20
3256;DHT22;1640;48.504;9.224;2023-06-04T08:04:22;18.90;70.60
3256;DHT22;1640;48.504;9.224;2023-06-04T08:09:18;19.10;69.90
3256;DHT22;1640;48.504;9.224;2023-06-04T08:11:46;19.20;70.60
3256;DHT22;1640;48.504;9.224;2023-06-04T08:14:15;19.50;69.20
3256;DHT22;1640;48.504;9.224;2023-06-04T08:16:42;19.50;68.60
3256;DHT22;1640;48.504;9.224;2023-06-04T08:19:10;19.50;69.60
3256;DHT22;1640;48.504;9.224;2023-06-04T08:21:40;19.70;67.90
3256;DHT22;1640;48.504;9.224;2023-06-04T08:24:08;19.90;67.00
3256;DHT22;1640;48.504;9.224;2023-06-04T08:26:36;20.00;67.30
3256;DHT22;1640;48.504;9.224;2023-06-04T08:29:04;20.20;66.20
3256;DHT22;1640;48.504;9.224;2023-06-04T08:31:31;20.30;65.90
3256;DHT22;1640;48.504;9.224;2023-06-04T08:33:59;20.40;65.50
3256;DHT22;1640;48.504;9.224;2023-06-04T08:36:27;20.40;65.20
3256;DHT22;1640;48.504;9.224;2023-06-04T08:38:56;20.40;65.60
3256;DHT22;1640;48.504;9.224;2023-06-04T08:41:29;20.50;65.50
3256;DHT22;1640;48.504;9.224;2023-06-04T08:43:57;20.50;65.20
3256;DHT22;1640;48.504;9.224;2023-06-04T08:46:28;20.50;65.60
3256;DHT22;1640;48.504;9.224;2023-06-04T08:49:00;20.60;65.90
3256;DHT22;1640;48.504;9.224;2023-06-04T08:51:29;20.50;64.20
3256;DHT22;1640;48.504;9.224;2023-06-04T08:54:03;20.70;64.20
3256;DHT22;1640;48.504;9.224;2023-06-04T08:56:31;20.80;62.20
3256;DHT22;1640;48.504;9.224;2023-06-04T08:59:02;20.80;62.90
3256;DHT22;1640;48.504;9.224;2023-06-04T09:01:31;20.80;63.20
3256;DHT22;1640;48.504;9.224;2023-06-04T09:04:01;20.90;62.60
3256;DHT22;1640;48.504;9.224;2023-06-04T09:06:30;21.20;62.60
3256;DHT22;1640;48.504;9.224;2023-06-04T09:08:59;21.30;61.10
3256;DHT22;1640;48.504;9.224;2023-06-04T09:11:36;21.40;60.90
3256;DHT22;1640;48.504;9.224;2023-06-04T09:14:07;21.50;60.40
3256;DHT22;1640;48.504;9.224;2023-06-04T09:16:43;21.70;58.90
3256;DHT22;1640;48.504;9.224;2023-06-04T09:19:11;21.60;58.80
3256;DHT22;1640;48.504;9.224;2023-06-04T09:21:54;21.70;58.90
3256;DHT22;1640;48.504;9.224;2023-06-04T09:24:23;21.70;58.00
3256;DHT22;1640;48.504;9.224;2023-06-04T09:26:52;21.90;58.20
3256;DHT22;1640;48.504;9.224;2023-06-04T09:29:20;22.10;57.50
3256;DHT22;1640;48.504;9.224;2023-06-04T09:31:57;22.20;56.30
3256;DHT22;1640;48.504;9.224;2023-06-04T09:34:27;22.10;56.90
3256;DHT22;1640;48.504;9.224;2023-06-04T09:36:56;22.30;56.70
3256;DHT22;1640;48.504;9.224;2023-06-04T09:39:24;22.30;55.10
3256;DHT22;1640;48.504;9.224;2023-06-04T09:42:01;22.40;55.60
3256;DHT22;1640;48.504;9.224;2023-06-04T09:44:29;22.60;55.50
3256;DHT22;1640;48.504;9.224;2023-06-04T09:46:57;22.80;53.50
3256;DHT22;1640;48.504;9.224;2023-06-04T09:49:25;22.90;52.50
3256;DHT22;1640;48.504;9.224;2023-06-04T09:51:53;22.80;53.70
3256;DHT22;1640;48.504;9.224;2023-06-04T09:54:21;22.90;52.10
3256;DHT22;1640;48.504;9.224;2023-06-04T09:56:48;23.00;52.10
3256;DHT22;1640;48.504;9.224;2023-06-04T09:59:17;23.10;51.80
3256;DHT22;1640;48.504;9.224;2023-06-04T10:01:46;23.10;52.00
3256;DHT22;1640;48.504;9.224;2023-06-04T10:04:15;23.10;52.30
3256;DHT22;1640;48.504;9.224;2023-06-04T10:06:44;23.20;51.20
3256;DHT22;1640;48.504;9.224;2023-06-04T10:09:13;23.40;49.50
3256;DHT22;1640;48.504;9.224;2023-06-04T10:11:47;23.40;49.30
3256;DHT22;1640;48.504;9.224;2023-06-04T10:14:21;23.50;51.00
3256;DHT22;1640;48.504;9.224;2023-06-04T10:16:50;23.50;49.40
3256;DHT22;1640;48.504;9.224;2023-06-04T10:19:18;23.60;49.80
3256;DHT22;1640;48.504;9.224;2023-06-04T10:21:47;23.70;48.20
3256;DHT22;1640;48.504;9.224;2023-06-04T10:24:15;23.80;48.00
3256;DHT22;1640;48.504;9.224;2023-06-04T10:26:43;23.70;48.50
3256;DHT22;1640;48.504;9.224;2023-06-04T10:29:13;23.90;49.90
3256;DHT22;1640;48.504;9.224;2023-06-04T10:31:43;24.10;48.00
3256;DHT22;1640;48.504;9.224;2023-06-04T10:34:11;24.20;45.60
3256;DHT22;1640;48.504;9.224;2023-06-04T10:36:42;23.90;47.20
3256;DHT22;1640;48.504;9.224;2023-06-04T10:39:11;23.80;46.00
3256;DHT22;1640;48.504;9.224;2023-06-04T10:41:40;23.70;46.80
3256;DHT22;1640;48.504;9.224;2023-06-04T10:44:08;23.70;47.60
3256;DHT22;1640;48.504;9.224;2023-06-04T10:46:40;23.70;46.60
3256;DHT22;1640;48.504;9.224;2023-06-04T10:49:10;23.90;46.80
3256;DHT22;1640;48.504;9.224;2023-06-04T10:51:38;24.20;45.30
3256;DHT22;1640;48.504;9.224;2023-06-04T10:54:07;24.30;44.10
3256;DHT22;1640;48.504;9.224;2023-06-04T10:56:35;24.30;44.90
3256;DHT22;1640;48.504;9.224;2023-06-04T10:59:14;24.30;45.10
3256;DHT22;1640;48.504;9.224;2023-06-04T11:01:42;24.50;44.00
3256;DHT22;1640;48.504;9.224;2023-06-04T11:04:20;24.50;43.40
3256;DHT22;1640;48.504;9.224;2023-06-04T11:06:48;24.30;43.20
3256;DHT22;1640;48.504;9.224;2023-06-04T11:09:28;23.90;44.70
3256;DHT22;1640;48.504;9.224;2023-06-04T11:11:57;23.90;45.10
3256;DHT22;1640;48.504;9.224;2023-06-04T11:14:24;24.00;44.40
3256;DHT22;1640;48.504;9.224;2023-06-04T11:16:52;24.10;44.90
3256;DHT22;1640;48.504;9.224;2023-06-04T11:19:21;24.20;43.40
3256;DHT22;1640;48.504;9.224;2023-06-04T11:21:49;24.40;43.30
3256;DHT22;1640;48.504;9.224;2023-06-04T11:24:17;24.50;42.60
3256;DHT22;1640;48.504;9.224;2023-06-04T11:26:45;24.60;41.80
3256;DHT22;1640;48.504;9.224;2023-06-04T11:29:14;24.60;42.30
3256;DHT22;1640;48.504;9.224;2023-06-04T11:31:42;24.60;43.70
3256;DHT22;1640;48.504;9.224;2023-06-04T11:34:11;24.70;41.40
3256;DHT22;1640;48.504;9.224;2023-06-04T11:36:50;24.80;42.20
3256;DHT22;1640;48.504;9.224;2023-06-04T11:39:19;24.80;42.50
3256;DHT22;1640;48.504;9.224;2023-06-04T11:41:47;24.70;41.70
3256;DHT22;1640;48.504;9.224;2023-06-04T11:44:18;24.80;42.50
3256;DHT22;1640;48.504;9.224;2023-06-04T11:46:46;25.00;40.70
3256;DHT22;1640;48.504;9.224;2023-06-04T11:49:18;25.20;41.10
3256;DHT22;1640;48.504;9.224;2023-06-04T11:51:47;25.30;40.40
3256;DHT22;1640;48.504;9.224;2023-06-04T11:54:17;25.30;39.90
3256;DHT22;1640;48.504;9.224;2023-06-04T11:56:45;25.10;40.40
3256;DHT22;1640;48.504;9.224;2023-06-04T11:59:15;24.80;42.20
3256;DHT22;1640;48.504;9.224;2023-06-04T12:01:44;25.00;41.30
3256;DHT22;1640;48.504;9.224;2023-06-04T12:04:12;25.20;41.00
3256;DHT22;1640;48.504;9.224;2023-06-04T12:06:50;25.40;39.90
3256;DHT22;1640;48.504;9.224;2023-06-04T12:09:24;25.40;39.10
3256;DHT22;1640;48.504;9.224;2023-06-04T12:11:58;25.40;39.20
3256;DHT22;1640;48.504;9.224;2023-06-04T12:14:26;25.40;38.70
3256;DHT22;1640;48.504;9.224;2023-06-04T12:16:57;25.40;39.00
3256;DHT22;1640;48.504;9.224;2023-06-04T12:19:25;25.30;39.50
3256;DHT22;1640;48.504;9.224;2023-06-04T12:22:00;25.20;38.80
3256;DHT22;1640;48.504;9.224;2023-06-04T12:24:31;25.30;40.30
3256;DHT22;1640;48.504;9.224;2023-06-04T12:27:04;25.60;38.80
3256;DHT22;1640;48.504;9.224;2023-06-04T12:29:32;25.90;37.50
3256;DHT22;1640;48.504;9.224;2023-06-04T12:32:05;25.80;37.30
3256;DHT22;1640;48.504;9.224;2023-06-04T12:34:34;25.70;37.20
3256;DHT22;1640;48.504;9.224;2023-06-04T12:37:02;25.60;37.20
3256;DHT22;1640;48.504;9.224;2023-06-04T12:39:33;25.60;38.00
3256;DHT22;1640;48.504;9.224;2023-06-04T12:42:03;25.80;38.10
3256;DHT22;1640;48.504;9.224;2023-06-04T12:44:31;25.80;36.50
3256;DHT22;1640;48.504;9.224;2023-06-04T12:46:58;25.80;35.30
3256;DHT22;1640;48.504;9.224;2023-06-04T12:49:26;25.60;35.80
3256;DHT22;1640;48.504;9.224;2023-06-04T12:51:54;25.40;36.50
3256;DHT22;1640;48.504;9.224;2023-06-04T12:54:22;25.60;36.20
3256;DHT22;1640;48.504;9.224;2023-06-04T12:56:51;25.50;36.20
3256;DHT22;1640;48.504;9.224;2023-06-04T12:59:19;25.60;36.60
3256;DHT22;1640;48.504;9.224;2023-06-04T13:01:46;25.50;35.80
3256;DHT22;1640;48.504;9.224;2023-06-04T13:04:14;25.60;36.80
3256;DHT22;1640;48.504;9.224;2023-06-04T13:06:42;25.60;35.70
3256;DHT22;1640;48.504;9.224;2023-06-04T13:09:12;25.60;37.10
3256;DHT22;1640;48.504;9.224;2023-06-04T13:11:41;25.80;34.70
3256;DHT22;1640;48.504;9.224;2023-06-04T13:14:10;26.10;33.50
3256;DHT22;1640;48.504;9.224;2023-06-04T13:16:38;26.20;33.90
3256;DHT22;1640;48.504;9.224;2023-06-04T13:19:06;26.40;33.80
3256;DHT22;1640;48.504;9.224;2023-06-04T13:21:34;26.60;33.90
3256;DHT22;1640;48.504;9.224;2023-06-04T13:24:02;27.00;32.70
3256;DHT22;1640;48.504;9.224;2023-06-04T13:26:30;26.90;33.30
3256;DHT22;1640;48.504;9.224;2023-06-04T13:28:58;26.70;32.80
3256;DHT22;1640;48.504;9.224;2023-06-04T13:31:27;26.30;32.70
3256;DHT22;1640;48.504;9.224;2023-06-04T13:33:54;26.20;33.40
3256;DHT22;1640;48.504;9.224;2023-06-04T13:36:22;26.00;33.10
3256;DHT22;1640;48.504;9.224;2023-06-04T13:38:50;26.00;33.90
3256;DHT22;1640;48.504;9.224;2023-06-04T13:41:18;26.20;33.40
3256;DHT22;1640;48.504;9.224;2023-06-04T13:43:47;26.30;33.00
3256;DHT22;1640;48.504;9.224;2023-06-04T13:46:15;26.50;31.20
3256;DHT22;1640;48.504;9.224;2023-06-04T13:48:44;26.60;31.50
3256;DHT22;1640;48.504;9.224;2023-06-04T13:51:12;26.50;31.60
3256;DHT22;1640;48.504;9.224;2023-06-04T13:53:40;26.50;33.70
3256;DHT22;1640;48.504;9.224;2023-06-04T13:56:07;26.80;33.10
3256;DHT22;1640;48.504;9.224;2023-06-04T13:58:35;26.80;31.80
3256;DHT22;1640;48.504;9.224;2023-06-04T14:01:03;27.00;32.70
3256;DHT22;1640;48.504;9.224;2023-06-04T14:03:30;27.00;31.60
3256;DHT22;1640;48.504;9.224;2023-06-04T14:05:59;27.00;31.80
3256;DHT22;1640;48.504;9.224;2023-06-04T14:08:27;27.20;30.50
3256;DHT22;1640;48.504;9.224;2023-06-04T14:10:55;27.00;29.60
3256;DHT22;1640;48.504;9.224;2023-06-04T14:13:23;27.00;33.90
3256;DHT22;1640;48.504;9.224;2023-06-04T14:15:51;26.80;30.70
3256;DHT22;1640;48.504;9.224;2023-06-04T14:18:19;27.10;30.30
3256;DHT22;1640;48.504;9.224;2023-06-04T14:20:46;26.70;30.70
3256;DHT22;1640;48.504;9.224;2023-06-04T14:23:16;26.50;29.90
3256;DHT22;1640;48.504;9.224;2023-06-04T14:25:44;27.00;29.30
3256;DHT22;1640;48.504;9.224;2023-06-04T14:28:12;27.70;29.00
3256;DHT22;1640;48.504;9.224;2023-06-04T14:33:08;29.90;27.40
3256;DHT22;1640;48.504;9.224;2023-06-04T14:35:35;30.80;26.20
3256;DHT22;1640;48.504;9.224;2023-06-04T14:38:04;32.10;25.20
3256;DHT22;1640;48.504;9.224;2023-06-04T14:40:33;32.90;23.20
3256;DHT22;1640;48.504;9.224;2023-06-04T14:43:01;32.90;22.60
3256;DHT22;1640;48.504;9.224;2023-06-04T14:45:29;33.20;23.20
3256;DHT22;1640;48.504;9.224;2023-06-04T14:47:57;33.80;23.00
3256;DHT22;1640;48.504;9.224;2023-06-04T14:50:24;34.10;21.30
3256;DHT22;1640;48.504;9.224;2023-06-04T14:52:52;33.70;20.90
3256;DHT22;1640;48.504;9.224;2023-06-04T14:55:20;32.30;22.60
3256;DHT22;1640;48.504;9.224;2023-06-04T14:57:49;30.90;24.70
3256;DHT22;1640;48.504;9.224;2023-06-04T15:00:17;30.50;25.00
3256;DHT22;1640;48.504;9.224;2023-06-04T15:02:45;29.80;25.50
3256;DHT22;1640;48.504;9.224;2023-06-04T15:05:13;29.30;25.80
3256;DHT22;1640;48.504;9.224;2023-06-04T15:07:40;29.00;26.70
3256;DHT22;1640;48.504;9.224;2023-06-04T15:10:08;29.10;26.20
3256;DHT22;1640;48.504;9.224;2023-06-04T15:12:36;29.20;25.90
3256;DHT22;1640;48.504;9.224;2023-06-04T15:15:09;29.10;26.00
3256;DHT22;1640;48.504;9.224;2023-06-04T15:17:37;28.80;26.10
3256;DHT22;1640;48.504;9.224;2023-06-04T15:20:06;28.00;27.00
3256;DHT22;1640;48.504;9.224;2023-06-04T15:22:34;27.50;27.90
3256;DHT22;1640;48.504;9.224;2023-06-04T15:25:02;27.20;28.60
3256;DHT22;1640;48.504;9.224;2023-06-04T15:27:30;27.00;29.20
3256;DHT22;1640;48.504;9.224;2023-06-04T15:29:58;27.20;29.20
3256;DHT22;1640;48.504;9.224;2023-06-04T15:32:27;27.40;29.00
3256;DHT22;1640;48.504;9.224;2023-06-04T15:34:54;27.60;29.00
3256;DHT22;1640;48.504;9.224;2023-06-04T15:37:24;27.60;29.10
3256;DHT22;1640;48.504;9.224;2023-06-04T15:39:51;27.70;28.70
3256;DHT22;1640;48.504;9.224;2023-06-04T15:42:19;28.00;28.70
3256;DHT22;1640;48.504;9.224;2023-06-04T15:44:47;28.30;28.10
3256;DHT22;1640;48.504;9.224;2023-06-04T15:47:14;28.30;27.50
3256;DHT22;1640;48.504;9.224;2023-06-04T15:49:44;28.40;27.60
3256;DHT22;1640;48.504;9.224;2023-06-04T15:52:11;28.40;28.10
3256;DHT22;1640;48.504;9.224;2023-06-04T15:54:39;28.80;28.50
3256;DHT22;1640;48.504;9.224;2023-06-04T15:57:07;29.40;26.70
3256;DHT22;1640;48.504;9.224;2023-06-04T15:59:34;30.20;26.80
3256;DHT22;1640;48.504;9.224;2023-06-04T16:02:02;31.10;26.40
3256;DHT22;1640;48.504;9.224;2023-06-04T16:04:30;31.40;24.60
3256;DHT22;1640;48.504;9.224;2023-06-04T16:06:59;31.00;24.90
3256;DHT22;1640;48.504;9.224;2023-06-04T16:09:28;30.50;25.00
3256;DHT22;1640;48.504;9.224;2023-06-04T16:11:56;29.90;25.40
3256;DHT22;1640;48.504;9.224;2023-06-04T16:14:24;29.50;26.30
3256;DHT22;1640;48.504;9.224;2023-06-04T16:16:51;29.60;26.30